Time;durP1;ratioP1;P1;durP2;ratioP2;P2;SDS_P1;SDS_P2;PMS_P1;PMS_P2;Temp;Humidity;BMP_temperature;BMP_pressure;BME280_temperature;BME280_humidity;BME280_pressure;Samples;Min_cycle;Max_cycle;Signal;HPM_P1;HPM_P2
2023/05/04 00:02:10;;;;;;;3.47;2.00;;;11.80;76.00;;;;;;10470774;28;20219;-72
2023/05/04 00:07:10;;;;;;;5.47;2.53;;;11.80;76.50;;;;;;10469888;28;20235;-71
2023/05/04 00:12:11;;;;;;;5.03;2.10;;;11.70;77.00;;;;;;10466801;28;20302;-71
2023/05/04 00:17:11;;;;;;;4.67;2.10;;;11.70;77.20;;;;;;10475345;28;20249;-72
2023/05/04 00:22:12;;;;;;;5.90;2.40;;;11.70;77.80;;;;;;10472439;28;20301;-72
2023/05/04 00:27:15;;;;;;;3.33;2.23;;;11.60;78.20;;;;;;10482875;28;20223;-70
2023/05/04 00:32:16;;;;;;;3.60;2.03;;;11.50;78.60;;;;;;10471096;28;20216;-72
2023/05/04 00:37:20;;;;;;;5.80;2.23;;;11.50;79.40;;;;;;10467388;28;20215;-72
2023/05/04 00:42:20;;;;;;;4.93;2.10;;;11.40;79.80;;;;;;10465753;28;20215;-71
2023/05/04 00:47:21;;;;;;;3.20;2.50;;;11.40;80.30;;;;;;10474799;28;20226;-72
2023/05/04 00:52:23;;;;;;;6.23;2.57;;;11.40;80.80;;;;;;10455575;28;20219;-72
2023/05/04 00:57:24;;;;;;;5.10;2.33;;;11.30;81.10;;;;;;10471227;28;20253;-72
2023/05/04 01:02:25;;;;;;;5.80;2.50;;;11.30;81.50;;;;;;10477411;28;20582;-72
2023/05/04 01:07:46;;;;;;;3.97;2.60;;;11.30;82.30;;;;;;10467882;28;20220;-72
2023/05/04 01:13:02;;;;;;;4.63;2.70;;;11.20;83.30;;;;;;10465053;28;20211;-71
2023/05/04 01:18:03;;;;;;;3.97;2.57;;;11.20;82.90;;;;;;10469635;28;20734;-73
2023/05/04 01:23:04;;;;;;;4.70;2.80;;;11.10;83.40;;;;;;10474198;28;20215;-71
2023/05/04 01:28:11;;;;;;;6.27;2.67;;;11.10;83.80;;;;;;10462112;28;20231;-71
2023/05/04 01:33:15;;;;;;;5.33;2.60;;;11.10;84.00;;;;;;10451432;28;20219;-72
2023/05/04 01:38:17;;;;;;;8.07;2.90;;;11.00;84.40;;;;;;10485878;28;20302;-72
2023/05/04 01:43:17;;;;;;;4.43;2.33;;;11.00;84.90;;;;;;10468015;28;20873;-72
2023/05/04 01:48:18;;;;;;;6.20;2.50;;;10.90;85.20;;;;;;10478160;28;20220;-72
2023/05/04 01:53:19;;;;;;;4.40;2.90;;;10.90;85.70;;;;;;10469408;28;20578;-72
2023/05/04 01:58:19;;;;;;;5.53;3.27;;;10.80;86.30;;;;;;10491305;28;20572;-72
2023/05/04 02:03:20;;;;;;;3.70;2.77;;;10.80;86.90;;;;;;10471101;28;20216;-73
2023/05/04 02:08:21;;;;;;;5.50;3.17;;;10.70;87.30;;;;;;10475803;28;20318;-72
2023/05/04 02:13:21;;;;;;;5.37;3.00;;;10.70;88.00;;;;;;10469825;28;20222;-74
2023/05/04 02:18:22;;;;;;;4.00;3.20;;;10.60;88.60;;;;;;10473125;28;20310;-73
2023/05/04 02:23:26;;;;;;;5.70;3.10;;;10.50;89.30;;;;;;10476281;28;20227;-73
2023/05/04 02:28:26;;;;;;;5.50;2.87;;;10.50;90.00;;;;;;10480104;28;20635;-75
2023/05/04 02:33:27;;;;;;;4.17;2.87;;;10.40;90.20;;;;;;10482954;28;20211;-74
2023/05/04 02:38:27;;;;;;;5.07;2.90;;;10.30;90.60;;;;;;10479351;28;20839;-70
2023/05/04 02:43:28;;;;;;;5.70;3.20;;;10.20;91.20;;;;;;10473368;28;20262;-72
2023/05/04 02:48:29;;;;;;;4.53;3.23;;;10.20;91.70;;;;;;10473998;28;20223;-72
2023/05/04 02:53:32;;;;;;;8.13;3.60;;;10.10;91.90;;;;;;10470639;28;20216;-74
2023/05/04 02:58:33;;;;;;;6.47;3.23;;;10.00;92.20;;;;;;10480836;28;20303;-72
2023/05/04 03:03:34;;;;;;;5.47;3.10;;;10.00;92.60;;;;;;10483074;28;20310;-73
2023/05/04 03:08:34;;;;;;;7.03;3.50;;;9.90;92.90;;;;;;10465787;28;20224;-71
2023/05/04 03:13:35;;;;;;;7.97;3.43;;;9.80;93.40;;;;;;10472871;28;20634;-72
2023/05/04 03:18:36;;;;;;;7.17;3.10;;;9.70;94.00;;;;;;10474049;28;20310;-73
2023/05/04 03:23:36;;;;;;;4.27;3.27;;;9.60;94.40;;;;;;10474045;28;20227;-71
2023/05/04 03:28:37;;;;;;;3.80;3.30;;;9.50;95.20;;;;;;10465297;28;20322;-72
2023/05/04 03:33:37;;;;;;;4.33;3.03;;;9.40;95.90;;;;;;10472860;28;20219;-73
2023/05/04 03:38:38;;;;;;;4.53;3.37;;;9.30;97.00;;;;;;10472619;28;20309;-72
2023/05/04 03:43:38;;;;;;;6.17;3.60;;;9.30;97.80;;;;;;10473631;28;20647;-72
2023/05/04 03:48:39;;;;;;;4.13;3.50;;;9.20;98.70;;;;;;10463504;28;20224;-73
2023/05/04 03:53:40;;;;;;;5.77;3.90;;;9.20;99.80;;;;;;10480604;28;20211;-74
2023/05/04 03:58:40;;;;;;;3.73;3.27;;;9.20;99.90;;;;;;10464564;28;20292;-72
2023/05/04 04:03:41;;;;;;;9.17;3.97;;;9.20;99.90;;;;;;10477383;28;20584;-74
2023/05/04 04:08:41;;;;;;;6.17;3.60;;;9.20;99.90;;;;;;10469744;28;20227;-73
2023/05/04 04:13:42;;;;;;;5.13;3.43;;;9.20;99.90;;;;;;10465680;28;20720;-71
2023/05/04 04:18:43;;;;;;;7.47;4.23;;;9.20;99.90;;;;;;10473655;28;20748;-72
2023/05/04 04:23:43;;;;;;;5.57;3.90;;;9.20;99.90;;;;;;10470652;28;20277;-73
2023/05/04 04:28:49;;;;;;;8.50;3.80;;;9.20;99.90;;;;;;10470333;28;20226;-74
2023/05/04 04:33:50;;;;;;;8.17;4.57;;;9.30;99.90;;;;;;10472037;28;20216;-73
2023/05/04 04:38:51;;;;;;;10.30;4.93;;;9.30;99.90;;;;;;10477872;28;20226;-71
2023/05/04 04:43:51;;;;;;;6.77;4.63;;;9.50;99.90;;;;;;10465159;28;20223;-70
2023/05/04 04:48:53;;;;;;;9.17;5.20;;;9.70;99.90;;;;;;10470502;28;20210;-68
2023/05/04 04:53:53;;;;;;;5.10;4.20;;;10.00;99.90;;;;;;10477451;28;20309;-68
2023/05/04 04:58:54;;;;;;;5.40;3.93;;;10.20;99.90;;;;;;10480484;28;20668;-67
2023/05/04 05:03:54;;;;;;;5.87;4.00;;;10.30;99.90;;;;;;10473648;28;20311;-66
2023/05/04 05:08:55;;;;;;;7.23;4.30;;;10.50;99.90;;;;;;10462670;28;20704;-68
2023/05/04 05:13:58;;;;;;;6.10;3.50;;;10.80;99.90;;;;;;10493106;28;20257;-66
2023/05/04 05:18:59;;;;;;;8.27;4.03;;;11.20;99.90;;;;;;10472394;28;20214;-67
2023/05/04 05:24:00;;;;;;;7.03;3.80;;;11.30;99.90;;;;;;10466834;28;20719;-66
2023/05/04 05:29:01;;;;;;;5.43;3.17;;;11.50;99.90;;;;;;10476063;28;20225;-67
2023/05/04 05:34:02;;;;;;;7.13;3.83;;;11.60;99.90;;;;;;10472850;28;20222;-67
2023/05/04 05:39:03;;;;;;;12.83;4.60;;;11.60;99.90;;;;;;10469454;28;20250;-66
2023/05/04 05:44:03;;;;;;;10.80;5.00;;;11.80;99.90;;;;;;10477889;28;20240;-67
2023/05/04 05:49:06;;;;;;;8.23;4.83;;;11.80;99.90;;;;;;10485364;28;20630;-67
2023/05/04 05:54:06;;;;;;;8.73;4.93;;;12.00;99.90;;;;;;10487158;28;20224;-67
2023/05/04 05:59:07;;;;;;;11.87;4.43;;;12.10;99.90;;;;;;10479645;28;20563;-66
2023/05/04 06:04:08;;;;;;;9.70;4.83;;;12.30;99.90;;;;;;10486099;28;20261;-67
2023/05/04 06:09:09;;;;;;;7.67;3.87;;;12.90;99.50;;;;;;10476620;28;20585;-67
2023/05/04 06:14:10;;;;;;;6.33;3.90;;;14.80;95.20;;;;;;10477026;28;20219;-67
2023/05/04 06:19:10;;;;;;;10.00;4.37;;;16.50;90.70;;;;;;10476166;28;20215;-68
2023/05/04 06:24:11;;;;;;;9.97;3.43;;;17.90;82.20;;;;;;10475091;28;20219;-68
2023/05/04 06:29:11;;;;;;;5.60;3.40;;;19.00;75.30;;;;;;10482409;28;20203;-67
2023/05/04 06:34:12;;;;;;;8.97;4.13;;;19.10;70.50;;;;;;10467402;28;20776;-67
2023/05/04 06:39:13;;;;;;;9.80;3.93;;;16.90;76.30;;;;;;10474756;28;20222;-67
2023/05/04 06:44:16;;;;;;;8.27;4.03;;;16.00;82.60;;;;;;10478079;28;20218;-67
2023/05/04 06:49:17;;;;;;;9.57;4.40;;;16.50;81.40;;;;;;10470085;28;20558;-72
2023/05/04 06:54:17;;;;;;;6.67;4.00;;;16.80;79.00;;;;;;10475832;28;20215;-73
2023/05/04 06:59:19;;;;;;;4.57;3.90;;;17.80;76.60;;;;;;10478290;28;20273;-73
2023/05/04 07:04:22;;;;;;;7.93;4.50;;;18.20;75.30;;;;;;10468451;28;20216;-72
2023/05/04 07:09:23;;;;;;;5.33;3.97;;;18.00;74.30;;;;;;10473197;28;20211;-72
2023/05/04 07:14:23;;;;;;;6.67;4.50;;;17.10;78.60;;;;;;10473506;28;20298;-73
2023/05/04 07:19:24;;;;;;;8.17;4.43;;;17.00;80.60;;;;;;10485395;28;20230;-73
2023/05/04 07:24:28;;;;;;;6.60;4.03;;;16.90;79.60;;;;;;10474899;28;20828;-74
2023/05/04 07:29:29;;;;;;;8.60;4.20;;;17.30;77.10;;;;;;10478270;28;20210;-73
2023/05/04 07:34:30;;;;;;;8.73;4.00;;;18.40;74.30;;;;;;10484795;28;20217;-73
2023/05/04 07:39:35;;;;;;;8.87;3.80;;;20.00;68.40;;;;;;10483490;28;20227;-73
2023/05/04 07:44:36;;;;;;;8.87;4.40;;;20.80;66.90;;;;;;10478302;28;20254;-73
2023/05/04 07:49:37;;;;;;;5.13;4.10;;;21.10;63.40;;;;;;10486272;28;20219;-73
2023/05/04 07:54:37;;;;;;;7.23;4.77;;;20.50;64.60;;;;;;10475626;28;20211;-72
2023/05/04 07:59:38;;;;;;;7.80;4.87;;;21.60;62.40;;;;;;10485482;28;20237;-73
2023/05/04 08:04:38;;;;;;;9.70;4.80;;;22.80;59.80;;;;;;10480165;28;20227;-73
2023/05/04 08:09:39;;;;;;;6.03;4.90;;;23.50;58.00;;;;;;10481828;28;20214;-73
2023/05/04 08:14:40;;;;;;;11.30;4.70;;;24.60;55.30;;;;;;10487432;28;20227;-72
2023/05/04 08:19:40;;;;;;;6.40;4.50;;;23.20;56.40;;;;;;10483395;28;20227;-72
2023/05/04 08:24:41;;;;;;;7.33;4.90;;;24.10;55.60;;;;;;10486090;28;20626;-72
2023/05/04 08:29:41;;;;;;;6.53;4.73;;;23.40;56.40;;;;;;10468877;28;20227;-73
2023/05/04 08:34:42;;;;;;;7.97;4.97;;;24.30;55.30;;;;;;10472096;28;20648;-73
2023/05/04 08:39:43;;;;;;;11.80;7.70;;;24.10;55.30;;;;;;10482418;28;20353;-71
2023/05/04 08:44:43;;;;;;;10.43;6.83;;;24.60;54.50;;;;;;10489296;28;20227;-73
2023/05/04 08:49:47;;;;;;;7.30;5.00;;;26.00;53.20;;;;;;10493208;28;20222;-73
2023/05/04 08:54:50;;;;;;;5.80;4.47;;;25.30;51.80;;;;;;10492698;28;20233;-73
2023/05/04 08:59:52;;;;;;;6.33;4.97;;;25.70;52.70;;;;;;10492005;28;20326;-72
2023/05/04 09:04:54;;;;;;;10.53;5.47;;;26.10;51.20;;;;;;10494197;28;20227;-73
2023/05/04 09:09:55;;;;;;;8.57;5.10;;;25.60;52.60;;;;;;10483890;28;20302;-73
2023/05/04 09:14:57;;;;;;;13.77;5.30;;;25.50;51.40;;;;;;10489136;28;20839;-74
2023/05/04 09:20:02;;;;;;;7.70;4.77;;;26.20;50.40;;;;;;10490922;28;20250;-73
2023/05/04 09:25:11;;;;;;;11.53;4.70;;;26.20;51.30;;;;;;10491036;28;20318;-74
2023/05/04 09:30:11;;;;;;;5.93;4.30;;;26.10;49.90;;;;;;10483467;28;20800;-73
2023/05/04 09:35:13;;;;;;;9.77;4.77;;;26.50;49.60;;;;;;10485662;28;20233;-73
2023/05/04 09:40:14;;;;;;;5.30;4.70;;;26.60;48.50;;;;;;10482400;28;20191;-73
2023/05/04 09:45:15;;;;;;;5.17;4.50;;;26.40;48.20;;;;;;10487444;28;20203;-73
2023/05/04 09:50:17;;;;;;;8.00;3.97;;;26.30;49.30;;;;;;10481599;28;20654;-74
2023/05/04 09:55:19;;;;;;;6.80;4.80;;;28.20;47.30;;;;;;10484474;28;20186;-74
2023/05/04 10:00:19;;;;;;;5.93;4.40;;;28.70;45.80;;;;;;10488055;28;20188;-73
2023/05/04 10:05:21;;;;;;;8.97;4.47;;;28.30;45.50;;;;;;10479515;28;20574;-75
2023/05/04 10:10:22;;;;;;;6.10;5.20;;;29.60;43.90;;;;;;10483159;28;20900;-74
2023/05/04 10:15:24;;;;;;;5.53;4.40;;;30.60;42.20;;;;;;10485143;28;20183;-74
2023/05/04 10:20:55;;;;;;;5.70;4.57;;;30.00;43.20;;;;;;10475210;28;20929;-74
2023/05/04 10:25:56;;;;;;;4.77;4.10;;;30.30;41.50;;;;;;10476550;28;20235;-74
2023/05/04 10:30:57;;;;;;;4.20;3.80;;;29.80;42.20;;;;;;10487415;28;20604;-74
2023/05/04 10:35:58;;;;;;;5.47;4.63;;;30.90;41.90;;;;;;10489893;28;20587;-74
2023/05/04 10:40:58;;;;;;;4.73;4.33;;;30.10;41.90;;;;;;10482243;28;20220;-74
2023/05/04 10:46:01;;;;;;;8.30;4.70;;;31.20;39.80;;;;;;10482107;28;20630;-73
2023/05/04 10:51:02;;;;;;;6.70;4.60;;;30.30;41.20;;;;;;10488685;28;20261;-74
2023/05/04 10:56:03;;;;;;;6.90;3.90;;;30.00;41.80;;;;;;10489576;28;20217;-73
2023/05/04 11:01:11;;;;;;;6.70;3.83;;;29.90;42.80;;;;;;10488614;28;20211;-75
2023/05/04 11:06:20;;;;;;;11.67;4.33;;;30.10;41.30;;;;;;10476524;28;20234;-74
2023/05/04 11:11:22;;;;;;;5.07;4.17;;;30.30;41.40;;;;;;10485342;28;20223;-76
2023/05/04 11:16:24;;;;;;;6.40;4.33;;;30.70;41.20;;;;;;10479802;28;20859;-74
2023/05/04 11:21:28;;;;;;;5.53;4.10;;;30.30;41.10;;;;;;10486548;28;20219;-75
2023/05/04 11:26:28;;;;;;;5.27;3.80;;;30.40;41.20;;;;;;10488848;28;20227;-75
2023/05/04 11:31:29;;;;;;;8.73;4.20;;;31.00;40.50;;;;;;10487383;28;20218;-75
2023/05/04 11:36:34;;;;;;;6.67;3.87;;;30.40;41.00;;;;;;10473284;28;20223;-75
2023/05/04 11:41:35;;;;;;;5.73;4.37;;;30.70;41.10;;;;;;10468608;28;20633;-75
2023/05/04 11:46:36;;;;;;;5.63;3.83;;;27.80;44.00;;;;;;10477442;28;20228;-76
2023/05/04 11:51:37;;;;;;;6.90;3.83;;;26.30;48.10;;;;;;10485789;28;20219;-74
2023/05/04 11:56:41;;;;;;;7.60;4.07;;;24.40;50.50;;;;;;10477304;28;20223;-72
2023/05/04 12:01:42;;;;;;;7.77;6.10;;;23.70;53.50;;;;;;10484170;28;20218;-73
2023/05/04 12:06:45;;;;;;;6.50;3.87;;;23.50;54.10;;;;;;10481169;28;20239;-73
2023/05/04 12:11:54;;;;;;;5.50;3.67;;;23.60;53.70;;;;;;10484937;28;20232;-73
2023/05/04 12:16:56;;;;;;;8.90;3.97;;;23.70;53.80;;;;;;10483851;28;20213;-74
2023/05/04 12:21:57;;;;;;;5.10;3.10;;;23.60;54.30;;;;;;10477381;28;20562;-73
2023/05/04 12:26:58;;;;;;;5.53;3.50;;;23.50;54.00;;;;;;10477123;28;20231;-73
2023/05/04 12:31:58;;;;;;;3.50;2.93;;;23.70;54.00;;;;;;10485152;28;20218;-73
2023/05/04 12:36:59;;;;;;;6.10;2.90;;;23.70;50.80;;;;;;10478850;28;20228;-75
2023/05/04 12:42:01;;;;;;;4.57;2.63;;;23.40;51.60;;;;;;10480277;28;20225;-75
2023/05/04 12:47:02;;;;;;;5.80;2.40;;;23.30;51.80;;;;;;10474407;28;20326;-75
2023/05/04 12:52:02;;;;;;;4.77;2.33;;;23.40;49.70;;;;;;10468417;28;20219;-75
2023/05/04 12:57:03;;;;;;;3.70;2.40;;;23.60;48.70;;;;;;10482930;28;21056;-75
2023/05/04 13:02:04;;;;;;;4.10;2.47;;;23.40;47.10;;;;;;10475947;28;20846;-76
2023/05/04 13:07:04;;;;;;;2.73;2.10;;;23.50;47.10;;;;;;10485124;28;20284;-74
2023/05/04 13:12:05;;;;;;;4.40;2.17;;;23.80;46.70;;;;;;10484938;28;20298;-74
2023/05/04 13:17:05;;;;;;;3.47;2.43;;;23.90;48.80;;;;;;10475869;28;20302;-74
2023/05/04 13:22:06;;;;;;;7.93;2.63;;;23.60;49.00;;;;;;10463092;28;20310;-75
2023/05/04 13:27:07;;;;;;;10.50;3.77;;;23.60;50.70;;;;;;10477940;28;20232;-73
2023/05/04 13:32:09;;;;;;;5.20;2.73;;;23.40;51.00;;;;;;10484897;28;20557;-74
2023/05/04 13:37:15;;;;;;;5.93;3.00;;;23.30;52.20;;;;;;10488880;28;20227;-74
2023/05/04 13:42:18;;;;;;;5.80;2.80;;;23.40;52.20;;;;;;10484724;28;20257;-75
2023/05/04 13:47:19;;;;;;;4.23;2.60;;;23.30;49.90;;;;;;10480371;28;20225;-76
2023/05/04 13:52:20;;;;;;;3.00;2.63;;;23.40;50.70;;;;;;10481600;28;20692;-75
2023/05/04 13:57:20;;;;;;;4.50;2.90;;;23.30;50.70;;;;;;10483931;28;20669;-75
2023/05/04 14:02:21;;;;;;;5.43;2.50;;;23.30;51.20;;;;;;10473588;28;20380;-73
2023/05/04 14:07:22;;;;;;;4.10;2.60;;;23.40;49.40;;;;;;10471469;28;20235;-73
2023/05/04 14:12:22;;;;;;;2.50;2.30;;;23.30;49.50;;;;;;10480279;28;20217;-74
2023/05/04 14:17:24;;;;;;;3.30;2.37;;;23.20;49.70;;;;;;10467331;28;20730;-73
2023/05/04 14:22:24;;;;;;;16.30;3.03;;;23.50;49.80;;;;;;10469241;28;20708;-73
2023/05/04 14:27:26;;;;;;;4.03;2.70;;;23.60;49.60;;;;;;10475322;28;20219;-73
2023/05/04 14:32:26;;;;;;;4.37;2.37;;;23.60;48.50;;;;;;10477085;28;20227;-73
2023/05/04 14:37:27;;;;;;;5.77;2.30;;;23.70;47.80;;;;;;10476509;28;20678;-72
2023/05/04 14:42:27;;;;;;;3.53;2.57;;;23.60;49.00;;;;;;10469165;28;20221;-72
2023/05/04 14:47:28;;;;;;;5.40;2.20;;;23.30;49.00;;;;;;10467153;28;20237;-74
2023/05/04 14:52:29;;;;;;;10.43;2.60;;;23.50;49.40;;;;;;10481158;28;20247;-72
2023/05/04 14:57:32;;;;;;;5.07;2.47;;;23.60;49.40;;;;;;10481382;28;20221;-73
2023/05/04 15:02:33;;;;;;;3.23;2.23;;;23.80;49.00;;;;;;10474380;28;20314;-73
2023/05/04 15:07:34;;;;;;;3.53;2.40;;;23.90;48.80;;;;;;10472870;28;20223;-73
2023/05/04 15:12:36;;;;;;;3.13;2.40;;;23.50;48.20;;;;;;10473184;28;20224;-73
2023/05/04 15:17:37;;;;;;;3.47;2.43;;;23.30;49.20;;;;;;10474230;28;20333;-73
2023/05/04 15:22:37;;;;;;;2.57;2.37;;;23.40;49.60;;;;;;10478427;28;20297;-73
2023/05/04 15:27:38;;;;;;;3.10;2.33;;;23.30;48.80;;;;;;10472203;28;20236;-73
2023/05/04 15:32:39;;;;;;;2.67;2.30;;;23.30;49.60;;;;;;10473320;28;20227;-73
2023/05/04 15:37:39;;;;;;;4.07;2.10;;;23.40;48.90;;;;;;10466036;28;20322;-73
2023/05/04 15:42:40;;;;;;;3.30;2.53;;;23.50;48.10;;;;;;10473175;28;20323;-73
2023/05/04 15:47:40;;;;;;;2.23;2.03;;;23.70;48.40;;;;;;10473544;28;20589;-72
2023/05/04 15:52:41;;;;;;;4.20;2.40;;;23.80;48.60;;;;;;10468433;28;20219;-72
2023/05/04 15:57:41;;;;;;;2.67;2.27;;;23.90;48.40;;;;;;10472873;28;20253;-73
2023/05/04 16:02:42;;;;;;;4.70;2.30;;;23.90;47.80;;;;;;10472722;28;20221;-72
2023/05/04 16:07:42;;;;;;;4.30;2.07;;;23.70;48.10;;;;;;10464557;28;20280;-73
2023/05/04 16:12:43;;;;;;;3.33;2.13;;;23.60;47.80;;;;;;10472704;28;20309;-73
2023/05/04 16:17:44;;;;;;;2.77;2.20;;;23.50;47.90;;;;;;10463466;28;20311;-73
2023/05/04 16:22:44;;;;;;;5.10;2.20;;;23.30;49.00;;;;;;10472786;28;20568;-73
2023/05/04 16:27:45;;;;;;;4.83;2.20;;;23.30;48.20;;;;;;10463109;28;20270;-73
2023/05/04 16:32:45;;;;;;;2.17;1.97;;;23.20;48.00;;;;;;10478809;28;20227;-72
2023/05/04 16:37:46;;;;;;;5.13;2.30;;;23.10;48.90;;;;;;10464447;28;20872;-74
2023/05/04 16:42:46;;;;;;;2.67;2.10;;;23.00;48.70;;;;;;10472170;28;20608;-73
2023/05/04 16:47:47;;;;;;;4.83;2.53;;;23.00;49.00;;;;;;10470018;28;20234;-73
2023/05/04 16:52:47;;;;;;;4.00;2.17;;;22.90;49.10;;;;;;10464772;28;20224;-74
2023/05/04 16:57:54;;;;;;;2.80;2.17;;;22.80;49.30;;;;;;10476347;28;20224;-73
2023/05/04 17:02:55;;;;;;;2.33;2.00;;;22.80;49.70;;;;;;10476305;28;20273;-73
2023/05/04 17:07:55;;;;;;;4.33;2.33;;;22.70;49.80;;;;;;10479758;28;20235;-73
2023/05/04 17:12:56;;;;;;;2.97;2.00;;;22.50;49.10;;;;;;10475618;28;20215;-73
2023/05/04 17:17:57;;;;;;;4.03;2.00;;;22.50;49.60;;;;;;10471624;28;20277;-73
2023/05/04 17:22:57;;;;;;;5.97;2.30;;;22.40;49.80;;;;;;10477913;28;20710;-73
2023/05/04 17:27:58;;;;;;;3.10;2.33;;;22.30;49.70;;;;;;10470589;28;20293;-73
2023/05/04 17:32:58;;;;;;;3.07;1.97;;;22.20;50.30;;;;;;10471292;28;20624;-73
2023/05/04 17:37:59;;;;;;;4.07;2.03;;;22.20;50.80;;;;;;10478552;28;20231;-73
2023/05/04 17:43:00;;;;;;;3.10;2.47;;;22.10;50.90;;;;;;10475588;28;20224;-73
2023/05/04 17:48:00;;;;;;;3.57;2.77;;;22.00;51.00;;;;;;10473507;28;20235;-73
2023/05/04 17:53:01;;;;;;;4.73;2.77;;;22.00;50.80;;;;;;10473477;28;20213;-73
2023/05/04 17:58:01;;;;;;;3.40;2.20;;;22.00;51.10;;;;;;10478833;28;20215;-72
2023/05/04 18:03:05;;;;;;;3.07;2.00;;;21.90;51.10;;;;;;10473495;28;20227;-73
2023/05/04 18:08:06;;;;;;;4.43;2.40;;;21.80;51.40;;;;;;10473194;28;20235;-72
2023/05/04 18:13:07;;;;;;;3.80;2.20;;;21.70;51.60;;;;;;10482097;28;20310;-73
2023/05/04 18:18:08;;;;;;;5.20;2.57;;;21.50;51.60;;;;;;10472448;28;20223;-72
2023/05/04 18:23:08;;;;;;;4.73;2.67;;;21.50;51.60;;;;;;10472956;28;20297;-73
2023/05/04 18:28:09;;;;;;;5.23;3.03;;;21.30;51.80;;;;;;10471480;28;20325;-73
2023/05/04 18:33:10;;;;;;;6.03;3.00;;;21.20;51.80;;;;;;10477198;28;20215;-73
2023/05/04 18:38:10;;;;;;;7.40;3.00;;;21.10;52.20;;;;;;10470576;28;20230;-73
2023/05/04 18:43:11;;;;;;;4.47;2.80;;;21.00;52.50;;;;;;10476905;28;20224;-73
2023/05/04 18:48:11;;;;;;;4.17;2.40;;;20.80;53.20;;;;;;10467408;28;20364;-73
2023/05/04 18:53:12;;;;;;;4.57;1.73;;;20.60;53.80;;;;;;10471281;28;20666;-73
2023/05/04 18:58:12;;;;;;;3.23;2.10;;;20.40;54.10;;;;;;10480119;28;20607;-72
2023/05/04 19:03:13;;;;;;;5.80;2.30;;;20.10;54.70;;;;;;10482290;28;20237;-72
2023/05/04 19:08:13;;;;;;;4.80;2.40;;;20.10;55.10;;;;;;10470356;28;20310;-73
2023/05/04 19:13:14;;;;;;;5.23;2.17;;;19.90;55.30;;;;;;10480573;28;20302;-70
2023/05/04 19:18:15;;;;;;;4.47;2.50;;;19.70;55.60;;;;;;10475310;28;20230;-73
2023/05/04 19:23:16;;;;;;;3.90;2.20;;;19.60;56.10;;;;;;10470638;28;20250;-70
2023/05/04 19:28:17;;;;;;;4.13;2.40;;;19.40;56.80;;;;;;10469922;28;20978;-72
2023/05/04 19:33:17;;;;;;;3.80;2.67;;;19.10;57.70;;;;;;10476403;28;20306;-72
2023/05/04 19:38:18;;;;;;;5.70;3.63;;;18.70;58.50;;;;;;10464846;28;20243;-72
2023/05/04 19:43:18;;;;;;;8.17;3.50;;;18.50;58.90;;;;;;10467262;28;20695;-72
2023/05/04 19:48:20;;;;;;;4.50;3.00;;;18.50;59.50;;;;;;10473230;28;20284;-72
2023/05/04 19:53:23;;;;;;;5.30;3.13;;;18.30;60.50;;;;;;10474364;28;20243;-72
2023/05/04 19:58:25;;;;;;;4.60;2.77;;;18.20;60.20;;;;;;10483728;28;20645;-72
2023/05/04 20:03:25;;;;;;;5.80;3.20;;;18.20;60.70;;;;;;10489709;28;20302;-74
2023/05/04 20:08:26;;;;;;;5.73;3.27;;;18.30;60.40;;;;;;10479516;28;20326;-74
2023/05/04 20:13:26;;;;;;;5.13;2.50;;;18.30;61.10;;;;;;10487648;28;20222;-74
2023/05/04 20:18:27;;;;;;;3.47;2.70;;;18.10;60.90;;;;;;10464710;28;20238;-73
2023/05/04 20:23:28;;;;;;;5.53;2.50;;;18.20;60.80;;;;;;10471321;28;20233;-74
2023/05/04 20:28:28;;;;;;;5.97;2.50;;;18.30;60.40;;;;;;10471326;28;20869;-74
2023/05/04 20:33:29;;;;;;;4.27;2.43;;;18.40;60.10;;;;;;10464479;28;20237;-73
2023/05/04 20:38:29;;;;;;;5.63;2.70;;;18.50;59.80;;;;;;10474336;28;20300;-73
2023/05/04 20:43:30;;;;;;;3.87;2.60;;;18.60;59.60;;;;;;10471399;28;20235;-75
2023/05/04 20:48:30;;;;;;;5.13;2.40;;;18.60;59.70;;;;;;10470223;28;20291;-73
2023/05/04 20:53:35;;;;;;;4.63;2.40;;;18.70;59.50;;;;;;10472591;28;20270;-73
2023/05/04 20:58:35;;;;;;;4.13;2.43;;;18.80;59.60;;;;;;10467569;28;20239;-73
2023/05/04 21:03:36;;;;;;;4.50;2.67;;;18.80;59.70;;;;;;10473145;28;20227;-73
2023/05/04 21:08:37;;;;;;;3.37;2.60;;;18.70;59.90;;;;;;10466322;28;20259;-74
2023/05/04 21:13:38;;;;;;;5.23;2.80;;;18.60;60.20;;;;;;10464210;28;20321;-73
2023/05/04 21:18:38;;;;;;;4.17;2.60;;;18.60;60.80;;;;;;10472043;28;20262;-73
2023/05/04 21:23:39;;;;;;;4.03;2.83;;;18.50;61.50;;;;;;10474273;28;20235;-74
2023/05/04 21:28:40;;;;;;;5.57;2.80;;;18.40;61.80;;;;;;10470261;28;20235;-74
2023/05/04 21:33:40;;;;;;;4.37;2.60;;;18.30;62.50;;;;;;10463820;28;20685;-74
2023/05/04 21:38:41;;;;;;;6.83;2.93;;;18.10;63.60;;;;;;10466979;28;20292;-73
2023/05/04 21:43:42;;;;;;;3.30;2.33;;;17.80;70.10;;;;;;10465123;28;20235;-74
2023/05/04 21:48:43;;;;;;;3.93;2.93;;;17.50;71.90;;;;;;10470300;28;20242;-74
2023/05/04 21:53:43;;;;;;;4.20;2.93;;;17.20;73.40;;;;;;10467822;28;20215;-74
2023/05/04 21:58:44;;;;;;;3.70;3.03;;;17.00;75.20;;;;;;10478755;28;20233;-74
2023/05/04 22:03:45;;;;;;;6.03;3.50;;;16.70;76.70;;;;;;10475876;28;20254;-73
2023/05/04 22:08:46;;;;;;;5.33;2.90;;;16.50;78.50;;;;;;10469485;28;20234;-73
2023/05/04 22:13:46;;;;;;;7.73;2.73;;;16.40;77.70;;;;;;10467097;28;20227;-72
2023/05/04 22:18:48;;;;;;;3.40;2.60;;;16.20;78.10;;;;;;10474870;28;20218;-75
2023/05/04 22:23:48;;;;;;;3.40;3.10;;;16.10;75.40;;;;;;10468375;28;20318;-71
2023/05/04 22:28:49;;;;;;;4.20;3.10;;;16.00;75.20;;;;;;10475775;28;20223;-71
2023/05/04 22:33:50;;;;;;;3.77;3.10;;;16.00;75.70;;;;;;10477443;28;20222;-71
2023/05/04 22:38:51;;;;;;;4.67;2.80;;;16.00;75.60;;;;;;10486183;28;20222;-71
2023/05/04 22:43:51;;;;;;;5.60;3.10;;;16.00;75.90;;;;;;10470933;28;20734;-71
2023/05/04 22:48:55;;;;;;;4.93;3.23;;;15.90;76.50;;;;;;10474926;28;20231;-71
2023/05/04 22:53:55;;;;;;;4.03;3.10;;;15.80;76.90;;;;;;10478646;28;20219;-71
2023/05/04 22:58:56;;;;;;;3.90;3.00;;;15.80;78.40;;;;;;10473339;28;20217;-72
2023/05/04 23:03:57;;;;;;;3.17;2.97;;;15.80;79.00;;;;;;10475383;28;20257;-74
2023/05/04 23:09:00;;;;;;;4.83;3.30;;;15.80;78.90;;;;;;10471842;28;20315;-73
2023/05/04 23:14:01;;;;;;;3.07;2.83;;;15.80;80.00;;;;;;10474285;28;20297;-73
2023/05/04 23:19:01;;;;;;;3.37;3.07;;;15.80;79.20;;;;;;10479313;28;20914;-71
2023/05/04 23:24:02;;;;;;;2.97;2.77;;;15.80;79.00;;;;;;10469646;28;20225;-72
2023/05/04 23:29:03;;;;;;;7.50;3.03;;;15.90;78.60;;;;;;10470671;28;20245;-74
2023/05/04 23:34:04;;;;;;;4.20;3.10;;;16.00;79.30;;;;;;10468303;28;20560;-74
2023/05/04 23:39:04;;;;;;;4.43;3.13;;;16.00;78.60;;;;;;10468918;28;20219;-73
2023/05/04 23:44:05;;;;;;;3.27;2.90;;;16.00;78.40;;;;;;10476491;28;20214;-72
2023/05/04 23:49:05;;;;;;;12.40;4.40;;;16.10;78.30;;;;;;10469560;28;20694;-72
2023/05/04 23:54:06;;;;;;;4.50;3.37;;;16.10;79.90;;;;;;10477653;28;20226;-73
2023/05/04 23:59:07;;;;;;;4.33;3.20;;;16.10;81.20;;;;;;10469402;28;20759;-73
